Time;durP1;ratioP1;P1;durP2;ratioP2;P2;SDS_P1;SDS_P2;PMS_P1;PMS_P2;Temp;Humidity;BMP_temperature;BMP_pressure;BME280_temperature;BME280_humidity;BME280_pressure;Samples;Min_cycle;Max_cycle;Signal;HPM_P1;HPM_P2
2022/07/28 00:02:09;;;;;;;;;;;;;;;;;;4901543;29;19942;-60
2022/07/28 00:04:39;;;;;;;;;;;;;;;;;;4888816;29;20382;-61
2022/07/28 00:07:04;;;;;;;;;;;;;;;;;;4903647;29;20026;-61
2022/07/28 00:09:30;;;;;;;;;;;;;;;;;;4906290;29;19954;-61
2022/07/28 00:11:58;;;;;;;;;;;;;;;;;;4891514;29;19950;-61
2022/07/28 00:14:26;;;;;;;;;;;;;;;;;;4887668;29;20330;-60
2022/07/28 00:16:51;;;;;;;;;;;;;;;;;;4890734;29;19935;-61
2022/07/28 00:19:17;;;;;;;;;;;;;;;;;;4890773;29;20002;-61
2022/07/28 00:21:42;;;;;;;;;;;;;;;;;;4904945;29;19930;-60
2022/07/28 00:24:10;;;;;;;;;;;;;;;;;;4889163;29;19939;-61
2022/07/28 00:26:38;;;;;;;;;;;;;;;;;;4883577;29;19927;-61
2022/07/28 00:29:07;;;;;;;;;;;;;;;;;;4887036;29;19923;-60
2022/07/28 00:31:32;;;;;;;;;;;;;;;;;;4887131;29;19931;-61
2022/07/28 00:33:59;;;;;;;;;;;;;;;;;;4886031;29;19931;-61
2022/07/28 00:36:27;;;;;;;;;;;;;;;;;;4883009;29;19966;-59
2022/07/28 00:38:53;;;;;;;;;;;;;;;;;;4887596;29;20042;-60
2022/07/28 00:41:19;;;;;;;;;;;;;;;;;;4903475;29;20295;-60
2022/07/28 00:43:44;;;;;;;;;;;;;;;;;;4887814;29;19926;-60
2022/07/28 00:46:10;;;;;;;;;;;;;;;;;;4904810;29;19923;-60
2022/07/28 00:48:37;;;;;;;;;;;;;;;;;;4884882;29;19933;-59
2022/07/28 00:51:05;;;;;;;;;;;;;;;;;;4888416;29;19923;-60
2022/07/28 00:53:30;;;;;;;;;;;;;;;;;;4888470;29;19934;-60
2022/07/28 00:55:58;;;;;;;;;;;;;;;;;;4901239;29;19919;-61
2022/07/28 00:58:25;;;;;;;;;;;;;;;;;;4888053;29;19943;-61
2022/07/28 01:00:51;;;;;;;;;;;;;;;;;;4903223;29;19919;-61
2022/07/28 01:03:17;;;;;;;;;;;;;;;;;;4879652;29;20578;-60
2022/07/28 01:05:42;;;;;;;;;;;;;;;;;;4881817;29;19942;-60
2022/07/28 01:08:10;;;;;;;;;;;;;;;;;;4869174;29;19931;-60
2022/07/28 01:10:35;;;;;;;;;;;;;;;;;;4890144;29;19930;-60
2022/07/28 01:13:06;;;;;;;;;;;;;;;;;;4888645;29;20724;-59
2022/07/28 01:15:53;;;;;;;;;;;;;;;;;;4897776;29;19926;-60
2022/07/28 01:18:19;;;;;;;;;;;;;;;;;;4896513;29;19929;-61
2022/07/28 01:20:46;;;;;;;;;;;;;;;;;;4880521;29;19927;-60
2022/07/28 01:23:11;;;;;;;;;;;;;;;;;;4838521;29;1795598;-60
2022/07/28 01:25:37;;;;;;;;;;;;;;;;;;4874913;29;22056;-60
2022/07/28 01:28:02;;;;;;;;;;;;;;;;;;4897429;29;19923;-60
2022/07/28 01:30:30;;;;;;;;;;;;;;;;;;4883004;29;20037;-60
2022/07/28 01:32:55;;;;;;;;;;;;;;;;;;4890228;29;20011;-60
2022/07/28 01:35:24;;;;;;;;;;;;;;;;;;4898390;29;19924;-60
2022/07/28 01:37:49;;;;;;;;;;;;;;;;;;4887661;29;19986;-60
2022/07/28 01:43:33;;;;;;;;;;;;;;;;;;4899094;29;19951;-61
2022/07/28 01:45:58;;;;;;;;;;;;;;;;;;4880805;29;19923;-61
2022/07/28 01:48:26;;;;;;;;;;;;;;;;;;4888735;29;19925;-61
2022/07/28 01:50:51;;;;;;;;;;;;;;;;;;4885576;29;20022;-61
2022/07/28 01:53:19;;;;;;;;;;;;;;;;;;4888633;29;19923;-61
2022/07/28 01:55:47;;;;;;;;;;;;;;;;;;4888530;29;20002;-61
2022/07/28 01:58:12;;;;;;;;;;;;;;;;;;4881957;29;19930;-62
2022/07/28 02:00:41;;;;;;;;;;;;;;;;;;4886870;29;20414;-61
2022/07/28 02:03:06;;;;;;;;;;;;;;;;;;4897731;29;19923;-62
2022/07/28 02:05:35;;;;;;;;;;;;;;;;;;4886848;29;19919;-61
2022/07/28 02:08:03;;;;;;;;;;;;;;;;;;4890976;29;21892;-61
2022/07/28 02:10:29;;;;;;;;;;;;;;;;;;4907855;29;19930;-61
2022/07/28 02:12:55;;;;;;;;;;;;;;;;;;4893597;29;20012;-61
2022/07/28 02:15:20;;;;;;;;;;;;;;;;;;4901867;29;20453;-61
2022/07/28 02:17:45;;;;;;;;;;;;;;;;;;4889956;29;20021;-61
2022/07/28 02:20:10;;;;;;;;;;;;;;;;;;4890138;29;19931;-60
2022/07/28 02:22:36;;;;;;;;;;;;;;;;;;4884911;29;20533;-60
2022/07/28 02:25:01;;;;;;;;;;;;;;;;;;4890569;29;20569;-60
2022/07/28 02:27:31;;;;;;;;;;;;;;;;;;4891259;29;20018;-60
2022/07/28 02:29:59;;;;;;;;;;;;;;;;;;4894035;29;20006;-60
2022/07/28 02:32:33;;;;;;;;;;;;;;;;;;4892633;29;19920;-61
2022/07/28 02:35:00;;;;;;;;;;;;;;;;;;4889923;29;19923;-61
2022/07/28 02:37:28;;;;;;;;;;;;;;;;;;4892200;29;19927;-60
2022/07/28 02:39:54;;;;;;;;;;;;;;;;;;4904442;29;21208;-62
2022/07/28 02:42:21;;;;;;;;;;;;;;;;;;4890725;29;19923;-61
2022/07/28 02:44:47;;;;;;;;;;;;;;;;;;4890906;29;20557;-61
2022/07/28 02:47:15;;;;;;;;;;;;;;;;;;4892321;29;19966;-61
2022/07/28 02:49:40;;;;;;;;;;;;;;;;;;4892341;29;19975;-61
2022/07/28 02:52:08;;;;;;;;;;;;;;;;;;4906536;29;19927;-61
2022/07/28 02:54:36;;;;;;;;;;;;;;;;;;4891814;29;20416;-61
2022/07/28 02:57:03;;;;;;;;;;;;;;;;;;4894928;29;19919;-61
2022/07/28 02:59:28;;;;;;;;;;;;;;;;;;4891156;29;19929;-61
2022/07/28 03:01:54;;;;;;;;;;;;;;;;;;4892676;29;20320;-61
2022/07/28 03:07:03;;;;;;;;;;;;;;;;;;4904618;29;19923;-61
2022/07/28 03:09:28;;;;;;;;;;;;;;;;;;4892657;29;20332;-61
2022/07/28 03:11:56;;;;;;;;;;;;;;;;;;4891774;29;20505;-61
2022/07/28 03:14:22;;;;;;;;;;;;;;;;;;4890020;29;20533;-61
2022/07/28 03:16:50;;;;;;;;;;;;;;;;;;4906277;29;19927;-61
2022/07/28 03:19:15;;;;;;;;;;;;;;;;;;4904874;29;19947;-60
2022/07/28 03:21:40;;;;;;;;;;;;;;;;;;4900186;29;20491;-60
2022/07/28 03:24:05;;;;;;;;;;;;;;;;;;4888349;29;20420;-62
2022/07/28 03:26:33;;;;;;;;;;;;;;;;;;4889625;29;20937;-62
2022/07/28 03:29:00;;;;;;;;;;;;;;;;;;4903342;29;20287;-62
2022/07/28 03:31:26;;;;;;;;;;;;;;;;;;4890936;29;20033;-62
2022/07/28 03:33:51;;;;;;;;;;;;;;;;;;4890859;29;20347;-62
2022/07/28 03:36:17;;;;;;;;;;;;;;;;;;4905648;29;20471;-62
2022/07/28 03:38:42;;;;;;;;;;;;;;;;;;4889142;29;19927;-62
2022/07/28 03:41:08;;;;;;;;;;;;;;;;;;4902461;29;19923;-60
2022/07/28 03:43:36;;;;;;;;;;;;;;;;;;4891636;29;19934;-61
2022/07/28 03:46:01;;;;;;;;;;;;;;;;;;4904808;29;19923;-61
2022/07/28 03:48:30;;;;;;;;;;;;;;;;;;4891061;29;19934;-61
2022/07/28 03:50:55;;;;;;;;;;;;;;;;;;4886970;29;19934;-62
2022/07/28 03:53:21;;;;;;;;;;;;;;;;;;4889493;29;19923;-61
2022/07/28 03:55:52;;;;;;;;;;;;;;;;;;4887139;29;19923;-61
2022/07/28 03:58:17;;;;;;;;;;;;;;;;;;4889280;29;19971;-61
2022/07/28 04:00:43;;;;;;;;;;;;;;;;;;4889439;29;20339;-61
2022/07/28 04:03:10;;;;;;;;;;;;;;;;;;4890546;29;19924;-60
2022/07/28 04:05:38;;;;;;;;;;;;;;;;;;4883589;29;20414;-61
2022/07/28 04:08:06;;;;;;;;;;;;;;;;;;4889642;29;19919;-62
2022/07/28 04:10:33;;;;;;;;;;;;;;;;;;4891186;29;19924;-62
2022/07/28 04:12:58;;;;;;;;;;;;;;;;;;4872358;29;19950;-62
2022/07/28 04:15:23;;;;;;;;;;;;;;;;;;4905421;29;19919;-62
2022/07/28 04:17:49;;;;;;;;;;;;;;;;;;4883633;29;19927;-62
2022/07/28 04:20:14;;;;;;;;;;;;;;;;;;4904393;29;19923;-62
2022/07/28 04:22:40;;;;;;;;;;;;;;;;;;4890490;29;21856;-62
2022/07/28 04:25:05;;;;;;;;;;;;;;;;;;4887212;29;19927;-62
2022/07/28 04:27:33;;;;;;;;;;;;;;;;;;4899647;29;19926;-62
2022/07/28 04:30:01;;;;;;;;;;;;;;;;;;4887580;29;19958;-62
2022/07/28 04:32:29;;;;;;;;;;;;;;;;;;4891284;29;20543;-62
2022/07/28 04:34:54;;;;;;;;;;;;;;;;;;4904861;29;20503;-62
2022/07/28 04:37:22;;;;;;;;;;;;;;;;;;4891407;29;20010;-62
2022/07/28 04:39:49;;;;;;;;;;;;;;;;;;4889597;29;19923;-62
2022/07/28 04:42:18;;;;;;;;;;;;;;;;;;4887780;29;19923;-63
2022/07/28 04:44:44;;;;;;;;;;;;;;;;;;4888548;29;19923;-63
2022/07/28 04:47:10;;;;;;;;;;;;;;;;;;4883462;29;19933;-61
2022/07/28 04:49:35;;;;;;;;;;;;;;;;;;4890656;29;19923;-61
2022/07/28 04:52:01;;;;;;;;;;;;;;;;;;4889824;29;20725;-63
2022/07/28 04:54:34;;;;;;;;;;;;;;;;;;4887139;29;19923;-62
2022/07/28 04:57:00;;;;;;;;;;;;;;;;;;4887782;29;19923;-62
2022/07/28 04:59:27;;;;;;;;;;;;;;;;;;4902597;29;20291;-62
2022/07/28 05:01:55;;;;;;;;;;;;;;;;;;4888831;29;19919;-62
2022/07/28 05:04:20;;;;;;;;;;;;;;;;;;4903517;29;19927;-62
2022/07/28 05:06:46;;;;;;;;;;;;;;;;;;4887739;29;20296;-62
2022/07/28 05:09:12;;;;;;;;;;;;;;;;;;4889442;29;20540;-61
2022/07/28 05:11:39;;;;;;;;;;;;;;;;;;4888431;29;19949;-62
2022/07/28 05:14:05;;;;;;;;;;;;;;;;;;4888650;29;20374;-62
2022/07/28 05:16:30;;;;;;;;;;;;;;;;;;4904216;29;19923;-62
2022/07/28 05:18:57;;;;;;;;;;;;;;;;;;4886980;29;20728;-63
2022/07/28 05:21:23;;;;;;;;;;;;;;;;;;4890048;29;19948;-61
2022/07/28 05:23:48;;;;;;;;;;;;;;;;;;4889518;29;20450;-62
2022/07/28 05:26:19;;;;;;;;;;;;;;;;;;4887695;29;19946;-62
2022/07/28 05:28:45;;;;;;;;;;;;;;;;;;4887821;29;19950;-62
2022/07/28 05:31:15;;;;;;;;;;;;;;;;;;4900525;29;19935;-62
2022/07/28 05:33:43;;;;;;;;;;;;;;;;;;4887524;29;20656;-62
2022/07/28 05:36:11;;;;;;;;;;;;;;;;;;4886483;29;19970;-61
2022/07/28 05:38:39;;;;;;;;;;;;;;;;;;4895037;29;19928;-63
2022/07/28 05:41:05;;;;;;;;;;;;;;;;;;4886134;29;19923;-62
2022/07/28 05:43:30;;;;;;;;;;;;;;;;;;4887428;29;19938;-62
2022/07/28 05:46:00;;;;;;;;;;;;;;;;;;4888545;29;19923;-62
2022/07/28 05:48:26;;;;;;;;;;;;;;;;;;4902957;29;19929;-63
2022/07/28 05:50:54;;;;;;;;;;;;;;;;;;4888919;29;20352;-62
2022/07/28 05:53:23;;;;;;;;;;;;;;;;;;4889965;29;20053;-62
2022/07/28 05:55:48;;;;;;;;;;;;;;;;;;4887815;29;19957;-63
2022/07/28 05:58:13;;;;;;;;;;;;;;;;;;4882716;29;19963;-61
2022/07/28 06:00:41;;;;;;;;;;;;;;;;;;4903022;29;20098;-62
2022/07/28 06:03:07;;;;;;;;;;;;;;;;;;4867669;29;20000;-62
2022/07/28 06:05:36;;;;;;;;;;;;;;;;;;4889766;29;19992;-62
2022/07/28 06:08:01;;;;;;;;;;;;;;;;;;4888858;29;20540;-62
2022/07/28 06:13:15;;;;;;;;;;;;;;;;;;4889580;29;19923;-62
2022/07/28 06:15:40;;;;;;;;;;;;;;;;;;4887529;29;20291;-62
2022/07/28 06:18:06;;;;;;;;;;;;;;;;;;4887706;29;19923;-62
2022/07/28 06:20:33;;;;;;;;;;;;;;;;;;4885331;29;19923;-62
2022/07/28 06:23:01;;;;;;;;;;;;;;;;;;4889585;29;21916;-61
2022/07/28 06:25:32;;;;;;;;;;;;;;;;;;4887563;29;20000;-62
2022/07/28 06:27:57;;;;;;;;;;;;;;;;;;4884924;29;21008;-64
2022/07/28 06:30:22;;;;;;;;;;;;;;;;;;4888471;29;19997;-63
2022/07/28 06:32:50;;;;;;;;;;;;;;;;;;4901810;29;19930;-63
2022/07/28 06:35:15;;;;;;;;;;;;;;;;;;4901630;29;19927;-64
2022/07/28 06:37:41;;;;;;;;;;;;;;;;;;4903542;29;19962;-62
2022/07/28 06:40:06;;;;;;;;;;;;;;;;;;4901474;29;19919;-62
2022/07/28 06:42:33;;;;;;;;;;;;;;;;;;4888779;29;20438;-62
2022/07/28 06:44:58;;;;;;;;;;;;;;;;;;4886463;29;19927;-63
2022/07/28 06:47:23;;;;;;;;;;;;;;;;;;4887583;29;21716;-63
2022/07/28 06:49:51;;;;;;;;;;;;;;;;;;4888717;29;22100;-63
2022/07/28 06:52:19;;;;;;;;;;;;;;;;;;4899199;29;19958;-63
2022/07/28 06:54:45;;;;;;;;;;;;;;;;;;4890661;29;19919;-62
2022/07/28 06:57:13;;;;;;;;;;;;;;;;;;4891112;29;19930;-63
2022/07/28 06:59:38;;;;;;;;;;;;;;;;;;4889239;29;20026;-63
2022/07/28 07:02:03;;;;;;;;;;;;;;;;;;4892437;29;20864;-63
2022/07/28 07:04:31;;;;;;;;;;;;;;;;;;4891638;29;19923;-64
2022/07/28 07:06:56;;;;;;;;;;;;;;;;;;4905218;29;20302;-62
2022/07/28 07:09:23;;;;;;;;;;;;;;;;;;4890381;29;19975;-63
2022/07/28 07:11:49;;;;;;;;;;;;;;;;;;4905394;29;19931;-63
2022/07/28 07:14:14;;;;;;;;;;;;;;;;;;4905417;29;19930;-63
2022/07/28 07:16:39;;;;;;;;;;;;;;;;;;4889915;29;19990;-63
2022/07/28 07:19:07;;;;;;;;;;;;;;;;;;4889035;29;20599;-62
2022/07/28 07:21:37;;;;;;;;;;;;;;;;;;4885836;29;20036;-62
2022/07/28 07:24:02;;;;;;;;;;;;;;;;;;4904662;29;20385;-63
2022/07/28 07:26:27;;;;;;;;;;;;;;;;;;4905290;29;19927;-63
2022/07/28 07:28:52;;;;;;;;;;;;;;;;;;4891788;29;19965;-63
2022/07/28 07:31:18;;;;;;;;;;;;;;;;;;4889080;29;19927;-63
2022/07/28 07:33:46;;;;;;;;;;;;;;;;;;4890711;29;20398;-65
2022/07/28 07:39:27;;;;;;;;;;;;;;;;;;4891843;29;19942;-63
2022/07/28 07:41:53;;;;;;;;;;;;;;;;;;4883813;29;20561;-63
2022/07/28 07:44:19;;;;;;;;;;;;;;;;;;4902702;29;19919;-64
2022/07/28 07:46:49;;;;;;;;;;;;;;;;;;4904115;29;19919;-63
2022/07/28 07:49:19;;;;;;;;;;;;;;;;;;4900804;29;19979;-63
2022/07/28 07:51:47;;;;;;;;;;;;;;;;;;4904842;29;19927;-63
2022/07/28 07:54:15;;;;;;;;;;;;;;;;;;4890847;29;20005;-64
2022/07/28 07:56:43;;;;;;;;;;;;;;;;;;4891564;29;19933;-62
2022/07/28 07:59:09;;;;;;;;;;;;;;;;;;4890828;29;20018;-63
2022/07/28 08:01:34;;;;;;;;;;;;;;;;;;4890814;29;19923;-64
2022/07/28 08:04:02;;;;;;;;;;;;;;;;;;4889648;29;19920;-62
2022/07/28 08:06:27;;;;;;;;;;;;;;;;;;4888803;29;20653;-63
2022/07/28 08:08:52;;;;;;;;;;;;;;;;;;4890906;29;20542;-64
2022/07/28 08:11:20;;;;;;;;;;;;;;;;;;4904289;29;19957;-62
2022/07/28 08:13:45;;;;;;;;;;;;;;;;;;4890255;29;20002;-62
2022/07/28 08:16:11;;;;;;;;;;;;;;;;;;4904240;29;19922;-62
2022/07/28 08:18:38;;;;;;;;;;;;;;;;;;4888722;29;19923;-63
2022/07/28 08:21:04;;;;;;;;;;;;;;;;;;4903975;29;20869;-63
2022/07/28 08:23:31;;;;;;;;;;;;;;;;;;4903262;29;19938;-62
2022/07/28 08:25:57;;;;;;;;;;;;;;;;;;4891825;29;19924;-64
2022/07/28 08:28:22;;;;;;;;;;;;;;;;;;4888045;29;19919;-63
2022/07/28 08:30:50;;;;;;;;;;;;;;;;;;4887954;29;20367;-64
2022/07/28 08:33:20;;;;;;;;;;;;;;;;;;4887833;29;20319;-62
2022/07/28 08:35:48;;;;;;;;;;;;;;;;;;4904188;29;19975;-62
2022/07/28 08:38:14;;;;;;;;;;;;;;;;;;4903693;29;19927;-63
2022/07/28 08:43:55;;;;;;;;;;;;;;;;;;4889485;29;19962;-62
2022/07/28 08:46:21;;;;;;;;;;;;;;;;;;4881115;29;20006;-63
2022/07/28 08:48:46;;;;;;;;;;;;;;;;;;4886921;29;19923;-63
2022/07/28 08:51:15;;;;;;;;;;;;;;;;;;4888836;29;19950;-63
2022/07/28 08:53:42;;;;;;;;;;;;;;;;;;4888295;29;19919;-63
2022/07/28 08:56:08;;;;;;;;;;;;;;;;;;4903100;29;19946;-63
2022/07/28 08:58:33;;;;;;;;;;;;;;;;;;4890776;29;20569;-64
2022/07/28 09:00:59;;;;;;;;;;;;;;;;;;4888826;29;19923;-63
2022/07/28 09:03:24;;;;;;;;;;;;;;;;;;4903764;29;19920;-64
2022/07/28 09:05:51;;;;;;;;;;;;;;;;;;4884966;29;19919;-64
2022/07/28 09:08:18;;;;;;;;;;;;;;;;;;4889206;29;19923;-62
2022/07/28 09:10:44;;;;;;;;;;;;;;;;;;4903775;29;19927;-65
2022/07/28 09:13:09;;;;;;;;;;;;;;;;;;4886290;29;19986;-64
2022/07/28 09:15:37;;;;;;;;;;;;;;;;;;4889534;29;20383;-64
2022/07/28 09:18:02;;;;;;;;;;;;;;;;;;4887711;29;19930;-62
2022/07/28 09:20:28;;;;;;;;;;;;;;;;;;4887811;29;20605;-63
2022/07/28 09:22:54;;;;;;;;;;;;;;;;;;4883610;29;19930;-63
2022/07/28 09:25:22;;;;;;;;;;;;;;;;;;4882079;29;19938;-63
2022/07/28 09:27:47;;;;;;;;;;;;;;;;;;4886942;29;21866;-62
2022/07/28 09:30:13;;;;;;;;;;;;;;;;;;4889642;29;20018;-62
2022/07/28 09:32:40;;;;;;;;;;;;;;;;;;4868377;29;20010;-62
2022/07/28 09:35:09;;;;;;;;;;;;;;;;;;4889245;29;19923;-61
2022/07/28 09:37:34;;;;;;;;;;;;;;;;;;4900820;29;19919;-62
2022/07/28 09:39:59;;;;;;;;;;;;;;;;;;4888981;29;19931;-62
2022/07/28 09:42:25;;;;;;;;;;;;;;;;;;4888349;29;20543;-61
2022/07/28 09:44:50;;;;;;;;;;;;;;;;;;4888390;29;19924;-62
2022/07/28 09:47:19;;;;;;;;;;;;;;;;;;4885862;29;19930;-62
2022/07/28 09:49:44;;;;;;;;;;;;;;;;;;4887162;29;19923;-61
2022/07/28 09:52:10;;;;;;;;;;;;;;;;;;4887259;29;20050;-61
2022/07/28 09:54:38;;;;;;;;;;;;;;;;;;4898010;29;20315;-61
2022/07/28 09:57:05;;;;;;;;;;;;;;;;;;4887235;29;19919;-62
2022/07/28 09:59:31;;;;;;;;;;;;;;;;;;4901709;29;19934;-62
2022/07/28 10:01:57;;;;;;;;;;;;;;;;;;4886383;29;19931;-60
2022/07/28 10:04:22;;;;;;;;;;;;;;;;;;4866431;29;19927;-62
2022/07/28 10:06:47;;;;;;;;;;;;;;;;;;4889501;29;19927;-61
2022/07/28 10:09:13;;;;;;;;;;;;;;;;;;4888671;29;19924;-62
2022/07/28 10:11:38;;;;;;;;;;;;;;;;;;4888150;29;19919;-62
2022/07/28 10:14:04;;;;;;;;;;;;;;;;;;4881881;29;19923;-61
2022/07/28 10:16:29;;;;;;;;;;;;;;;;;;4888730;29;19920;-60
2022/07/28 10:18:54;;;;;;;;;;;;;;;;;;4880808;29;20556;-61
2022/07/28 10:21:22;;;;;;;;;;;;;;;;;;4888129;29;19931;-58
2022/07/28 10:23:47;;;;;;;;;;;;;;;;;;4880548;29;19930;-61
2022/07/28 10:26:15;;;;;;;;;;;;;;;;;;4881629;29;19924;-61
2022/07/28 10:28:43;;;;;;;;;;;;;;;;;;4892086;29;19920;-59
2022/07/28 10:31:08;;;;;;;;;;;;;;;;;;4886403;29;19981;-61
2022/07/28 10:33:34;;;;;;;;;;;;;;;;;;4889815;29;19926;-59
2022/07/28 10:36:03;;;;;;;;;;;;;;;;;;4893303;29;20452;-59
2022/07/28 10:38:28;;;;;;;;;;;;;;;;;;4892900;29;19923;-61
2022/07/28 10:40:55;;;;;;;;;;;;;;;;;;4891485;29;20830;-61
2022/07/28 10:43:20;;;;;;;;;;;;;;;;;;4885771;29;21888;-61
2022/07/28 10:45:46;;;;;;;;;;;;;;;;;;4905901;29;19926;-60
2022/07/28 10:48:11;;;;;;;;;;;;;;;;;;4891929;29;19934;-60
2022/07/28 10:50:39;;;;;;;;;;;;;;;;;;4889778;29;19923;-59
2022/07/28 10:53:05;;;;;;;;;;;;;;;;;;4891563;29;19971;-60
2022/07/28 10:55:31;;;;;;;;;;;;;;;;;;4905109;29;20406;-60
2022/07/28 10:57:59;;;;;;;;;;;;;;;;;;4883818;29;19975;-61
2022/07/28 11:00:24;;;;;;;;;;;;;;;;;;4891671;29;19927;-61
2022/07/28 11:02:50;;;;;;;;;;;;;;;;;;4904542;29;20022;-59
2022/07/28 11:05:16;;;;;;;;;;;;;;;;;;4892834;29;20472;-60
2022/07/28 11:07:41;;;;;;;;;;;;;;;;;;4892582;29;19927;-62
2022/07/28 11:13:23;;;;;;;;;;;;;;;;;;4891056;29;21006;-61
2022/07/28 11:15:49;;;;;;;;;;;;;;;;;;4890739;29;19920;-60
2022/07/28 11:18:17;;;;;;;;;;;;;;;;;;4891859;29;19919;-61
2022/07/28 11:20:42;;;;;;;;;;;;;;;;;;4890921;29;19931;-60
2022/07/28 11:23:07;;;;;;;;;;;;;;;;;;4885171;29;20747;-59
2022/07/28 11:25:32;;;;;;;;;;;;;;;;;;4901581;29;19927;-60
2022/07/28 11:28:00;;;;;;;;;;;;;;;;;;4889244;29;19923;-60
2022/07/28 11:30:34;;;;;;;;;;;;;;;;;;4906467;29;19923;-60
2022/07/28 11:32:59;;;;;;;;;;;;;;;;;;4891319;29;20008;-60
2022/07/28 11:35:30;;;;;;;;;;;;;;;;;;4905791;29;19930;-61
2022/07/28 11:37:55;;;;;;;;;;;;;;;;;;4891438;29;20874;-61
2022/07/28 11:40:23;;;;;;;;;;;;;;;;;;4890018;29;19938;-58
2022/07/28 11:46:10;;;;;;;;;;;;;;;;;;4890444;29;19982;-60
2022/07/28 11:48:37;;;;;;;;;;;;;;;;;;4887152;29;19927;-60
2022/07/28 11:51:03;;;;;;;;;;;;;;;;;;4890034;29;19967;-60
2022/07/28 11:53:28;;;;;;;;;;;;;;;;;;4888612;29;19923;-61
2022/07/28 11:55:56;;;;;;;;;;;;;;;;;;4889817;29;19919;-60
2022/07/28 11:58:21;;;;;;;;;;;;;;;;;;4890446;29;19986;-60
2022/07/28 12:00:46;;;;;;;;;;;;;;;;;;4888985;29;20885;-60
2022/07/28 12:03:12;;;;;;;;;;;;;;;;;;4889796;29;19919;-62
2022/07/28 12:05:40;;;;;;;;;;;;;;;;;;4903353;29;19920;-60
2022/07/28 12:08:07;;;;;;;;;;;;;;;;;;4887785;29;19934;-61
2022/07/28 12:10:33;;;;;;;;;;;;;;;;;;4889002;29;19923;-60
2022/07/28 12:13:03;;;;;;;;;;;;;;;;;;4890361;29;20312;-61
2022/07/28 12:15:28;;;;;;;;;;;;;;;;;;4890870;29;19919;-61
2022/07/28 12:17:53;;;;;;;;;;;;;;;;;;4889087;29;20375;-61
2022/07/28 12:20:19;;;;;;;;;;;;;;;;;;4890357;29;19926;-58
2022/07/28 12:22:46;;;;;;;;;;;;;;;;;;4888819;29;19919;-60
2022/07/28 12:25:14;;;;;;;;;;;;;;;;;;4889898;29;19942;-61
2022/07/28 12:27:40;;;;;;;;;;;;;;;;;;4890314;29;20549;-60
2022/07/28 12:30:05;;;;;;;;;;;;;;;;;;4890028;29;19923;-59
2022/07/28 12:32:34;;;;;;;;;;;;;;;;;;4888035;29;19919;-59
2022/07/28 12:34:59;;;;;;;;;;;;;;;;;;4889953;29;19955;-60
2022/07/28 12:37:33;;;;;;;;;;;;;;;;;;4890981;29;20009;-61
2022/07/28 12:39:59;;;;;;;;;;;;;;;;;;4884361;29;19920;-59
2022/07/28 12:42:30;;;;;;;;;;;;;;;;;;4889578;29;20540;-60
2022/07/28 12:44:55;;;;;;;;;;;;;;;;;;4888832;29;19954;-61
2022/07/28 12:47:20;;;;;;;;;;;;;;;;;;4889066;29;20062;-60
2022/07/28 12:49:50;;;;;;;;;;;;;;;;;;4887362;29;19923;-61
2022/07/28 12:52:15;;;;;;;;;;;;;;;;;;4889847;29;20641;-61
2022/07/28 12:54:43;;;;;;;;;;;;;;;;;;4888576;29;19927;-60
2022/07/28 12:57:09;;;;;;;;;;;;;;;;;;4889708;29;19927;-60
2022/07/28 12:59:35;;;;;;;;;;;;;;;;;;4901704;29;19927;-60
2022/07/28 13:02:01;;;;;;;;;;;;;;;;;;4887308;29;19927;-60
2022/07/28 13:04:26;;;;;;;;;;;;;;;;;;4898313;29;19931;-60
2022/07/28 13:06:51;;;;;;;;;;;;;;;;;;4888544;29;19930;-60
2022/07/28 13:09:19;;;;;;;;;;;;;;;;;;4882851;29;19931;-59
2022/07/28 13:11:47;;;;;;;;;;;;;;;;;;4888226;29;19975;-60
2022/07/28 13:14:12;;;;;;;;;;;;;;;;;;4888565;29;20774;-59
2022/07/28 13:16:37;;;;;;;;;;;;;;;;;;4889290;29;20010;-58
2022/07/28 13:19:04;;;;;;;;;;;;;;;;;;4900813;29;19931;-60
2022/07/28 13:21:29;;;;;;;;;;;;;;;;;;4886908;29;19974;-59
2022/07/28 13:23:57;;;;;;;;;;;;;;;;;;4889058;29;20783;-59
2022/07/28 13:26:23;;;;;;;;;;;;;;;;;;4886648;29;19934;-59
2022/07/28 13:28:50;;;;;;;;;;;;;;;;;;4888208;29;20014;-58
2022/07/28 13:31:18;;;;;;;;;;;;;;;;;;4902140;29;20023;-59
2022/07/28 13:33:44;;;;;;;;;;;;;;;;;;4888705;29;19949;-58
2022/07/28 13:36:09;;;;;;;;;;;;;;;;;;4901471;29;19931;-59
2022/07/28 13:38:34;;;;;;;;;;;;;;;;;;4887723;29;19938;-59
2022/07/28 13:43:52;;;;;;;;;;;;;;;;;;4883891;29;19930;-59
2022/07/28 13:46:20;;;;;;;;;;;;;;;;;;4903571;29;20002;-58
2022/07/28 13:48:45;;;;;;;;;;;;;;;;;;4902280;29;19934;-58
2022/07/28 13:51:11;;;;;;;;;;;;;;;;;;4901762;29;19923;-60
2022/07/28 13:53:36;;;;;;;;;;;;;;;;;;4888492;29;19970;-59
2022/07/28 13:56:06;;;;;;;;;;;;;;;;;;4886934;29;20005;-59
2022/07/28 13:58:34;;;;;;;;;;;;;;;;;;4887105;29;20291;-60
2022/07/28 14:01:00;;;;;;;;;;;;;;;;;;4886849;29;19927;-59
2022/07/28 14:03:25;;;;;;;;;;;;;;;;;;4888905;29;19927;-59
2022/07/28 14:05:53;;;;;;;;;;;;;;;;;;4893599;29;19927;-60
2022/07/28 14:08:20;;;;;;;;;;;;;;;;;;4892346;29;19939;-59
2022/07/28 14:10:46;;;;;;;;;;;;;;;;;;4893026;29;19969;-60
2022/07/28 14:13:11;;;;;;;;;;;;;;;;;;4892199;29;20002;-60
2022/07/28 14:15:36;;;;;;;;;;;;;;;;;;4891626;29;19973;-58
2022/07/28 14:18:05;;;;;;;;;;;;;;;;;;4907816;29;19930;-59
2022/07/28 14:20:30;;;;;;;;;;;;;;;;;;4892984;29;19923;-58
2022/07/28 14:22:58;;;;;;;;;;;;;;;;;;4906750;29;19919;-59
2022/07/28 14:25:23;;;;;;;;;;;;;;;;;;4891177;29;19934;-60
2022/07/28 14:27:51;;;;;;;;;;;;;;;;;;4885824;29;19923;-57
2022/07/28 14:30:19;;;;;;;;;;;;;;;;;;4892057;29;20362;-58
2022/07/28 14:32:45;;;;;;;;;;;;;;;;;;4891121;29;19966;-58
2022/07/28 14:35:10;;;;;;;;;;;;;;;;;;4890664;29;20013;-57
2022/07/28 14:37:40;;;;;;;;;;;;;;;;;;4891730;29;19919;-59
2022/07/28 14:40:08;;;;;;;;;;;;;;;;;;4888791;29;19930;-60
2022/07/28 14:42:42;;;;;;;;;;;;;;;;;;4871614;29;19931;-56
2022/07/28 14:45:07;;;;;;;;;;;;;;;;;;4890001;29;19923;-57
2022/07/28 14:47:33;;;;;;;;;;;;;;;;;;4906738;29;19930;-60
2022/07/28 14:49:58;;;;;;;;;;;;;;;;;;4874108;29;19923;-59
2022/07/28 14:52:26;;;;;;;;;;;;;;;;;;4889153;29;20346;-58
2022/07/28 14:54:54;;;;;;;;;;;;;;;;;;4891034;29;19928;-58
2022/07/28 14:57:19;;;;;;;;;;;;;;;;;;4884711;29;19934;-57
2022/07/28 14:59:44;;;;;;;;;;;;;;;;;;4890090;29;19919;-58
2022/07/28 15:02:12;;;;;;;;;;;;;;;;;;4891432;29;19933;-59
2022/07/28 15:04:38;;;;;;;;;;;;;;;;;;4905806;29;19930;-59
2022/07/28 15:07:04;;;;;;;;;;;;;;;;;;4892888;29;19919;-58
2022/07/28 15:09:29;;;;;;;;;;;;;;;;;;4884011;29;19923;-59
2022/07/28 15:11:54;;;;;;;;;;;;;;;;;;4890801;29;19919;-58
2022/07/28 15:14:20;;;;;;;;;;;;;;;;;;4890215;29;21021;-58
2022/07/28 15:16:47;;;;;;;;;;;;;;;;;;4888239;29;19930;-58
2022/07/28 15:19:15;;;;;;;;;;;;;;;;;;4884432;29;19955;-58
2022/07/28 15:21:44;;;;;;;;;;;;;;;;;;4884293;29;20017;-58
2022/07/28 15:24:09;;;;;;;;;;;;;;;;;;4884318;29;19927;-58
2022/07/28 15:26:39;;;;;;;;;;;;;;;;;;4888870;29;19923;-58
2022/07/28 15:29:07;;;;;;;;;;;;;;;;;;4889506;29;19983;-58
2022/07/28 15:31:32;;;;;;;;;;;;;;;;;;4892760;29;19974;-60
2022/07/28 15:34:00;;;;;;;;;;;;;;;;;;4904870;29;19923;-58
2022/07/28 15:36:26;;;;;;;;;;;;;;;;;;4890284;29;19975;-58
2022/07/28 15:38:51;;;;;;;;;;;;;;;;;;4889273;29;19938;-58
2022/07/28 15:41:17;;;;;;;;;;;;;;;;;;4903091;29;19942;-58
2022/07/28 15:43:42;;;;;;;;;;;;;;;;;;4887729;29;19923;-59
2022/07/28 15:46:09;;;;;;;;;;;;;;;;;;4889798;29;19919;-59
2022/07/28 15:48:36;;;;;;;;;;;;;;;;;;4889318;29;19923;-60
2022/07/28 15:51:02;;;;;;;;;;;;;;;;;;4891179;29;20019;-59
2022/07/28 15:53:30;;;;;;;;;;;;;;;;;;4887260;29;20077;-59
2022/07/28 15:55:56;;;;;;;;;;;;;;;;;;4889410;29;20002;-58
2022/07/28 15:58:21;;;;;;;;;;;;;;;;;;4888823;29;19930;-59
2022/07/28 16:00:49;;;;;;;;;;;;;;;;;;4890048;29;20083;-59
2022/07/28 16:03:17;;;;;;;;;;;;;;;;;;4884863;29;19927;-59
2022/07/28 16:05:48;;;;;;;;;;;;;;;;;;4869027;29;20014;-59
2022/07/28 16:08:16;;;;;;;;;;;;;;;;;;4890495;29;22046;-59
2022/07/28 16:10:41;;;;;;;;;;;;;;;;;;4902846;29;19923;-58
2022/07/28 16:13:09;;;;;;;;;;;;;;;;;;4871374;29;19935;-58
2022/07/28 16:15:34;;;;;;;;;;;;;;;;;;4886344;29;19930;-59
2022/07/28 16:18:02;;;;;;;;;;;;;;;;;;4882348;29;19930;-58
2022/07/28 16:20:27;;;;;;;;;;;;;;;;;;4884569;29;20580;-59
2022/07/28 16:22:53;;;;;;;;;;;;;;;;;;4888079;29;21000;-58
2022/07/28 16:25:19;;;;;;;;;;;;;;;;;;4889299;29;20002;-59
2022/07/28 16:30:39;;;;;;;;;;;;;;;;;;4889918;29;19923;-58
2022/07/28 16:33:04;;;;;;;;;;;;;;;;;;4889836;29;19927;-56
2022/07/28 16:35:33;;;;;;;;;;;;;;;;;;4867538;29;19974;-58
2022/07/28 16:37:58;;;;;;;;;;;;;;;;;;4890187;29;19930;-58
2022/07/28 16:40:24;;;;;;;;;;;;;;;;;;4903796;29;19931;-60
2022/07/28 16:42:51;;;;;;;;;;;;;;;;;;4888740;29;19923;-58
2022/07/28 16:45:19;;;;;;;;;;;;;;;;;;4890576;29;19927;-59
2022/07/28 16:47:45;;;;;;;;;;;;;;;;;;4889060;29;19930;-58
2022/07/28 16:50:14;;;;;;;;;;;;;;;;;;4889779;29;20499;-59
2022/07/28 16:52:40;;;;;;;;;;;;;;;;;;4889614;29;19919;-58
2022/07/28 16:55:07;;;;;;;;;;;;;;;;;;4886617;29;20362;-60
2022/07/28 16:57:32;;;;;;;;;;;;;;;;;;4889163;29;19934;-59
2022/07/28 16:59:58;;;;;;;;;;;;;;;;;;4887908;29;19923;-59
2022/07/28 17:02:23;;;;;;;;;;;;;;;;;;4889299;29;20714;-59
2022/07/28 17:04:51;;;;;;;;;;;;;;;;;;4882940;29;20001;-58
2022/07/28 17:07:17;;;;;;;;;;;;;;;;;;4889274;29;20372;-60
2022/07/28 17:09:43;;;;;;;;;;;;;;;;;;4890125;29;19923;-58